Time,TemperatureF,DewpointF,PressureIn,WindDirection,WindDirectionDegrees,WindSpeedMPH,WindSpeedGustMPH,Humidity,HourlyPrecipIn,Conditions,Clouds,dailyrainin,SoftwareType,DateUTC
2013-09-21 00:13:00,60.0,-99.9,-100.00,WNW,295,2.0,3.0,-999,0.00,,,0.08,,2013-09-21 05:13:00,
2013-09-21 00:23:00,60.0,-99.9,-100.00,WNW,295,2.0,3.0,-999,0.00,,,0.08,,2013-09-21 05:23:00,
2013-09-21 00:44:00,59.0,-99.9,-100.00,SW,228,1.0,2.0,-999,0.00,,,0.07,,2013-09-21 05:44:00,
2013-09-21 00:53:00,59.0,-99.9,-100.00,SW,228,1.0,2.0,-999,0.00,,,0.07,,2013-09-21 05:53:00,
2013-09-21 01:12:00,59.0,-99.9,-100.00,West,281,4.0,6.0,-999,0.00,,,0.06,,2013-09-21 06:12:00,
2013-09-21 01:22:00,59.0,-99.9,-100.00,West,281,4.0,6.0,-999,0.00,,,0.06,,2013-09-21 06:22:00,
2013-09-21 01:42:00,58.0,-99.9,-100.00,WNW,298,5.0,6.0,-999,0.00,,,0.05,,2013-09-21 06:42:00,
2013-09-21 01:53:00,58.0,-99.9,-100.00,WNW,298,5.0,6.0,-999,0.00,,,0.05,,2013-09-21 06:53:00,
2013-09-21 02:11:00,57.0,-99.9,-100.00,NW,311,4.0,7.0,-999,0.00,,,0.05,,2013-09-21 07:11:00,
2013-09-21 02:22:00,57.0,-99.9,-100.00,NW,311,4.0,7.0,-999,0.00,,,0.05,,2013-09-21 07:22:00,
2013-09-21 02:42:00,56.0,-99.9,-100.00,WNW,302,5.0,7.0,-999,0.00,,,0.03,,2013-09-21 07:42:00,
2013-09-21 02:52:00,56.0,-99.9,-100.00,WNW,302,5.0,7.0,-999,0.00,,,0.03,,2013-09-21 07:52:00,
2013-09-21 03:13:00,56.0,-99.9,-100.00,NW,312,3.0,6.0,-999,0.00,,,0.01,,2013-09-21 08:13:00,
2013-09-21 03:22:00,56.0,-99.9,-100.00,NW,312,3.0,6.0,-999,0.00,,,0.01,,2013-09-21 08:22:00,
2013-09-21 03:42:00,56.0,-99.9,-100.00,NW,319,5.0,7.0,-999,0.00,,,0.01,,2013-09-21 08:42:00,
2013-09-21 03:52:00,56.0,-99.9,-100.00,NW,319,5.0,7.0,-999,0.00,,,0.01,,2013-09-21 08:52:00,
2013-09-21 04:11:00,55.0,-99.9,-100.00,NW,311,5.0,8.0,-999,0.00,,,0.01,,2013-09-21 09:11:00,
2013-09-21 04:22:00,55.0,-99.9,-100.00,NW,311,5.0,8.0,-999,0.00,,,0.01,,2013-09-21 09:22:00,
2013-09-21 04:43:00,55.0,-99.9,-100.00,NW,317,5.0,6.0,-999,0.00,,,0.01,,2013-09-21 09:43:00,
2013-09-21 04:54:00,55.0,-99.9,-100.00,NW,317,5.0,6.0,-999,0.00,,,0.01,,2013-09-21 09:54:00,
2013-09-21 05:12:00,55.0,-99.9,-100.00,NW,324,6.0,9.0,-999,0.00,,,0.01,,2013-09-21 10:12:00,
2013-09-21 05:23:00,55.0,-99.9,-100.00,NW,324,6.0,9.0,-999,0.00,,,0.01,,2013-09-21 10:23:00,
2013-09-21 05:42:00,54.0,-99.9,-100.00,NW,311,7.0,9.0,-999,0.00,,,0.01,,2013-09-21 10:42:00,
2013-09-21 05:53:00,54.0,-99.9,-100.00,NW,311,7.0,9.0,-999,0.00,,,0.01,,2013-09-21 10:53:00,
2013-09-21 06:12:00,54.0,-99.9,-100.00,NNW,330,6.0,10.0,-999,0.00,,,0.01,,2013-09-21 11:12:00,
2013-09-21 06:23:00,54.0,-99.9,-100.00,NNW,330,6.0,10.0,-999,0.00,,,0.01,,2013-09-21 11:23:00,
2013-09-21 06:42:00,53.0,-99.9,-100.00,NNW,330,6.0,10.0,-999,0.00,,,0.01,,2013-09-21 11:42:00,
2013-09-21 06:52:00,53.0,-99.9,-100.00,NNW,330,6.0,10.0,-999,0.00,,,0.01,,2013-09-21 11:52:00,
2013-09-21 07:12:00,52.0,-99.9,-100.00,NW,323,7.0,8.0,-999,0.00,,,0.01,,2013-09-21 12:12:00,
2013-09-21 07:22:00,52.0,-99.9,-100.00,NW,323,7.0,8.0,-999,0.00,,,0.01,,2013-09-21 12:22:00,
2013-09-21 07:30:00,52.0,-99.9,-100.00,NW,325,8.0,10.0,-999,0.00,,,0.01,,2013-09-21 12:30:00,
2013-09-21 07:42:00,52.0,-99.9,-100.00,NW,319,6.0,9.0,-999,0.00,,,0.01,,2013-09-21 12:42:00,
2013-09-21 07:52:00,52.0,-99.9,-100.00,NW,319,6.0,9.0,-999,0.00,,,0.01,,2013-09-21 12:52:00,
2013-09-21 08:11:00,52.0,-99.9,-100.00,NW,325,8.0,10.0,-999,0.00,,,0.01,,2013-09-21 13:11:00,
2013-09-21 08:22:00,52.0,-99.9,-100.00,NW,325,8.0,10.0,-999,0.00,,,0.01,,2013-09-21 13:22:00,
2013-09-21 09:11:00,53.0,-99.9,-100.00,NW,313,6.0,8.0,-999,0.00,,,0.01,,2013-09-21 14:11:00,
2013-09-21 09:22:00,53.0,-99.9,-100.00,NW,313,6.0,8.0,-999,0.00,,,0.01,,2013-09-21 14:22:00,
2013-09-21 09:42:00,55.0,-99.9,-100.00,NW,325,7.0,10.0,-999,0.00,,,0.01,,2013-09-21 14:42:00,
2013-09-21 09:52:00,55.0,-99.9,-100.00,NW,325,7.0,10.0,-999,0.00,,,0.01,,2013-09-21 14:52:00,
2013-09-21 10:12:00,57.0,-99.9,-100.00,NW,314,8.0,11.0,-999,0.00,,,-99.99,,2013-09-21 15:12:00,
2013-09-21 10:22:00,57.0,-99.9,-100.00,NW,314,8.0,11.0,-999,0.00,,,-99.99,,2013-09-21 15:22:00,
2013-09-21 10:45:00,58.0,-99.9,-100.00,NW,316,6.0,11.0,-999,0.00,,,0.01,,2013-09-21 15:45:00,
2013-09-21 10:55:00,58.0,-99.9,-100.00,NW,316,6.0,11.0,-999,0.00,,,0.01,,2013-09-21 15:55:00,
2013-09-21 11:14:00,60.0,-99.9,-100.00,NNW,331,6.0,12.0,-999,0.00,,,0.01,,2013-09-21 16:14:00,
2013-09-21 11:24:00,60.0,-99.9,-100.00,NNW,331,6.0,12.0,-999,0.00,,,0.01,,2013-09-21 16:24:00,
2013-09-21 11:43:00,61.0,-99.9,-100.00,North,359,9.0,15.0,-999,0.00,,,0.01,,2013-09-21 16:43:00,
2013-09-21 11:54:00,61.0,-99.9,-100.00,North,359,9.0,15.0,-999,0.00,,,0.01,,2013-09-21 16:54:00,
2013-09-21 12:12:00,61.0,-99.9,-100.00,North,2,10.0,13.0,-999,0.00,,,0.01,,2013-09-21 17:12:00,
2013-09-21 12:23:00,61.0,-99.9,-100.00,North,2,10.0,13.0,-999,0.00,,,0.01,,2013-09-21 17:23:00,
2013-09-21 12:43:00,62.0,-99.9,-100.00,North,3,10.0,14.0,-999,0.00,,,0.01,,2013-09-21 17:43:00,
2013-09-21 12:53:00,62.0,-99.9,-100.00,North,3,10.0,14.0,-999,0.00,,,0.01,,2013-09-21 17:53:00,
2013-09-21 13:13:00,63.0,-99.9,-100.00,North,356,7.0,11.0,-999,0.00,,,0.01,,2013-09-21 18:13:00,
2013-09-21 13:22:00,63.0,-99.9,-100.00,North,356,7.0,11.0,-999,0.00,,,0.01,,2013-09-21 18:22:00,
2013-09-21 13:42:00,64.0,-99.9,-100.00,North,7,8.0,11.0,-999,0.00,,,0.01,,2013-09-21 18:42:00,
2013-09-21 13:52:00,64.0,-99.9,-100.00,North,7,8.0,11.0,-999,0.00,,,0.01,,2013-09-21 18:52:00,
2013-09-21 14:12:00,65.0,-99.9,-100.00,North,3,9.0,14.0,-999,0.00,,,0.01,,2013-09-21 19:12:00,
2013-09-21 14:22:00,65.0,-99.9,-100.00,North,3,9.0,14.0,-999,0.00,,,0.01,,2013-09-21 19:22:00,
2013-09-21 14:42:00,66.0,-99.9,-100.00,North,5,9.0,14.0,-999,0.00,,,0.01,,2013-09-21 19:42:00,
2013-09-21 14:52:00,66.0,-99.9,-100.00,North,5,9.0,14.0,-999,0.00,,,0.01,,2013-09-21 19:52:00,
2013-09-21 15:12:00,66.0,-99.9,-100.00,NNE,12,9.0,12.0,-999,0.00,,,0.01,,2013-09-21 20:12:00,
2013-09-21 15:22:00,66.0,-99.9,-100.00,NNE,12,9.0,12.0,-999,0.00,,,0.01,,2013-09-21 20:22:00,
2013-09-21 15:43:00,67.0,-99.9,-100.00,NNE,20,10.0,14.0,-999,0.00,,,0.00,,2013-09-21 20:43:00,
2013-09-21 15:52:00,67.0,-99.9,-100.00,NNE,20,10.0,14.0,-999,0.00,,,0.00,,2013-09-21 20:52:00,
2013-09-21 16:12:00,68.0,-99.9,-100.00,NNE,14,8.0,13.0,-999,0.00,,,0.00,,2013-09-21 21:12:00,
2013-09-21 16:22:00,68.0,-99.9,-100.00,NNE,14,8.0,13.0,-999,0.00,,,0.00,,2013-09-21 21:22:00,
2013-09-21 16:45:00,68.0,-99.9,-100.00,NNE,22,9.0,13.0,-999,0.00,,,0.00,,2013-09-21 21:45:00,
2013-09-21 17:14:00,69.0,-99.9,-100.00,NNE,17,11.0,15.0,-999,0.00,,,0.00,,2013-09-21 22:14:00,
2013-09-21 17:24:00,69.0,-99.9,-100.00,NNE,17,11.0,15.0,-999,0.00,,,0.00,,2013-09-21 22:24:00,
2013-09-21 17:43:00,69.0,-99.9,-100.00,NNE,17,9.0,11.0,-999,0.00,,,0.00,,2013-09-21 22:43:00,
2013-09-21 17:53:00,69.0,-99.9,-100.00,NNE,17,9.0,11.0,-999,0.00,,,0.00,,2013-09-21 22:53:00,
2013-09-21 18:13:00,69.0,-99.9,-100.00,NNE,24,6.0,9.0,-999,0.00,,,0.00,,2013-09-21 23:13:00,
2013-09-21 18:23:00,69.0,-99.9,-100.00,NNE,24,6.0,9.0,-999,0.00,,,0.00,,2013-09-21 23:23:00,
2013-09-21 18:42:00,69.0,-99.9,-100.00,North,8,5.0,6.0,-999,0.00,,,0.00,,2013-09-21 23:42:00,
2013-09-21 18:53:00,69.0,-99.9,-100.00,North,8,5.0,6.0,-999,0.00,,,0.00,,2013-09-21 23:53:00,
2013-09-21 19:12:00,69.0,-99.9,-100.00,NNE,16,5.0,6.0,-999,0.00,,,0.00,,2013-09-22 00:12:00,
2013-09-21 19:23:00,69.0,-99.9,-100.00,NNE,16,5.0,6.0,-999,0.00,,,0.00,,2013-09-22 00:23:00,
2013-09-21 19:43:00,68.0,-99.9,-100.00,NNW,328,2.0,3.0,-999,0.00,,,0.00,,2013-09-22 00:43:00,
2013-09-21 19:52:00,68.0,-99.9,-100.00,NNW,328,2.0,3.0,-999,0.00,,,0.00,,2013-09-22 00:52:00,
2013-09-21 20:12:00,66.0,-99.9,-100.00,West,272,2.0,3.0,-999,0.00,,,0.00,,2013-09-22 01:12:00,
2013-09-21 20:22:00,66.0,-99.9,-100.00,West,272,2.0,3.0,-999,0.00,,,0.00,,2013-09-22 01:22:00,
2013-09-21 20:42:00,61.0,-99.9,-100.00,SE,128,2.0,3.0,-999,0.00,,,0.00,,2013-09-22 01:42:00,
2013-09-21 20:52:00,61.0,-99.9,-100.00,SE,128,2.0,3.0,-999,0.00,,,0.00,,2013-09-22 01:52:00,
2013-09-21 21:12:00,60.0,-99.9,-100.00,SE,133,1.0,2.0,-999,0.00,,,0.00,,2013-09-22 02:12:00,
2013-09-21 21:22:00,60.0,-99.9,-100.00,SE,133,1.0,2.0,-999,0.00,,,0.00,,2013-09-22 02:22:00,
2013-09-21 21:42:00,59.0,-99.9,-100.00,SE,132,2.0,2.0,-999,0.00,,,0.00,,2013-09-22 02:42:00,
2013-09-21 21:52:00,59.0,-99.9,-100.00,SE,132,2.0,2.0,-999,0.00,,,0.00,,2013-09-22 02:52:00,
2013-09-21 22:12:00,57.0,-99.9,-100.00,SSE,158,0.0,1.0,-999,0.00,,,0.00,,2013-09-22 03:12:00,
2013-09-21 22:22:00,57.0,-99.9,-100.00,SSE,158,0.0,1.0,-999,0.00,,,0.00,,2013-09-22 03:22:00,
2013-09-21 22:30:00,55.0,-99.9,-100.00,SSE,148,0.0,1.0,-999,0.00,,,0.00,,2013-09-22 03:30:00,
2013-09-21 22:45:00,56.0,-99.9,-100.00,SSE,151,1.0,2.0,-999,0.00,,,0.00,,2013-09-22 03:45:00,
2013-09-21 22:54:00,56.0,-99.9,-100.00,SSE,151,1.0,2.0,-999,0.00,,,0.00,,2013-09-22 03:54:00,
2013-09-21 23:03:00,-999.0,-99.9,-100.00,SSE,148,0.0,1.0,-999,-99.99,,,-99.99,,2013-09-22 04:03:00,
2013-09-21 23:15:00,55.0,-99.9,-100.00,SSE,148,0.0,1.0,-999,0.00,,,0.00,,2013-09-22 04:15:00,
2013-09-21 23:24:00,55.0,-99.9,-100.00,SSE,148,0.0,1.0,-999,0.00,,,0.00,,2013-09-22 04:24:00,
2013-09-21 23:54:00,54.0,-99.9,-100.00,SSE,159,1.0,2.0,-999,0.00,,,0.00,,2013-09-22 04:54:00,